sensor_id;sensor_type;location;lat;lon;timestamp;pressure;altitude;pressure_sealevel;temperature;humidity
19672;BME280;9983;51.114;13.788;2022-10-18T00:02:24;100281.25;;;16.11;100.00
19672;BME280;9983;51.114;13.788;2022-10-18T00:07:25;100284.59;;;16.13;100.00
19672;BME280;9983;51.114;13.788;2022-10-18T00:12:25;100290.44;;;15.51;100.00
19672;BME280;9983;51.114;13.788;2022-10-18T00:17:25;100299.28;;;16.25;100.00
19672;BME280;9983;51.114;13.788;2022-10-18T00:22:26;100300.13;;;15.89;100.00
19672;BME280;9983;51.114;13.788;2022-10-18T00:27:28;100305.22;;;15.99;100.00
19672;BME280;9983;51.114;13.788;2022-10-18T01:02:19;100279.53;;;15.74;100.00
19672;BME280;9983;51.114;13.788;2022-10-18T01:07:47;100271.34;;;15.52;100.00
19672;BME280;9983;51.114;13.788;2022-10-18T01:18:16;100289.50;;;15.14;100.00
19672;BME280;9983;51.114;13.788;2022-10-18T01:23:30;100286.53;;;15.39;100.00
19672;BME280;9983;51.114;13.788;2022-10-18T01:33:56;100280.03;;;15.48;100.00
19672;BME280;9983;51.114;13.788;2022-10-18T01:39:01;100285.56;;;15.17;100.00
19672;BME280;9983;51.114;13.788;2022-10-18T01:44:03;100289.09;;;15.55;100.00
19672;BME280;9983;51.114;13.788;2022-10-18T01:49:06;100293.63;;;15.69;100.00
19672;BME280;9983;51.114;13.788;2022-10-18T01:54:06;100293.38;;;15.64;100.00
19672;BME280;9983;51.114;13.788;2022-10-18T02:04:39;100308.69;;;15.49;100.00
19672;BME280;9983;51.114;13.788;2022-10-18T02:09:50;100288.38;;;15.24;100.00
19672;BME280;9983;51.114;13.788;2022-10-18T02:14:55;100282.13;;;15.23;100.00
19672;BME280;9983;51.114;13.788;2022-10-18T02:19:58;100292.03;;;15.31;100.00
19672;BME280;9983;51.114;13.788;2022-10-18T02:25:05;100297.69;;;15.36;100.00
19672;BME280;9983;51.114;13.788;2022-10-18T02:30:09;100296.69;;;15.51;100.00
19672;BME280;9983;51.114;13.788;2022-10-18T02:35:23;100287.41;;;15.02;100.00
19672;BME280;9983;51.114;13.788;2022-10-18T02:40:25;100299.16;;;15.24;100.00
19672;BME280;9983;51.114;13.788;2022-10-18T02:45:26;100293.59;;;15.40;100.00
19672;BME280;9983;51.114;13.788;2022-10-18T02:50:26;100289.13;;;15.17;100.00
19672;BME280;9983;51.114;13.788;2022-10-18T02:55:26;100286.94;;;14.98;100.00
19672;BME280;9983;51.114;13.788;2022-10-18T03:00:26;100298.41;;;15.00;100.00
19672;BME280;9983;51.114;13.788;2022-10-18T03:05:27;100303.81;;;15.00;100.00
19672;BME280;9983;51.114;13.788;2022-10-18T03:10:27;100307.97;;;13.89;100.00
19672;BME280;9983;51.114;13.788;2022-10-18T03:15:27;100309.13;;;14.71;100.00
19672;BME280;9983;51.114;13.788;2022-10-18T03:20:27;100302.50;;;14.96;100.00
19672;BME280;9983;51.114;13.788;2022-10-18T03:25:28;100302.91;;;14.48;100.00
19672;BME280;9983;51.114;13.788;2022-10-18T03:30:28;100307.06;;;14.73;100.00
19672;BME280;9983;51.114;13.788;2022-10-18T03:35:28;100314.78;;;14.38;100.00
19672;BME280;9983;51.114;13.788;2022-10-18T03:40:29;100314.53;;;14.71;100.00
19672;BME280;9983;51.114;13.788;2022-10-18T03:45:29;100311.03;;;14.39;100.00
19672;BME280;9983;51.114;13.788;2022-10-18T03:50:29;100301.09;;;14.63;100.00
19672;BME280;9983;51.114;13.788;2022-10-18T03:55:29;100298.94;;;14.81;100.00
19672;BME280;9983;51.114;13.788;2022-10-18T04:00:30;100300.88;;;14.72;100.00
19672;BME280;9983;51.114;13.788;2022-10-18T04:05:30;100308.25;;;14.93;100.00
19672;BME280;9983;51.114;13.788;2022-10-18T04:10:30;100308.66;;;14.45;100.00
19672;BME280;9983;51.114;13.788;2022-10-18T04:15:31;100300.97;;;14.79;100.00
19672;BME280;9983;51.114;13.788;2022-10-18T04:20:31;100297.31;;;15.09;100.00
19672;BME280;9983;51.114;13.788;2022-10-18T04:25:31;100289.88;;;15.11;100.00
19672;BME280;9983;51.114;13.788;2022-10-18T04:30:32;100298.56;;;14.84;100.00
19672;BME280;9983;51.114;13.788;2022-10-18T04:35:32;100294.72;;;15.31;100.00
19672;BME280;9983;51.114;13.788;2022-10-18T04:40:32;100286.31;;;15.26;100.00
19672;BME280;9983;51.114;13.788;2022-10-18T04:45:32;100293.31;;;15.35;100.00
19672;BME280;9983;51.114;13.788;2022-10-18T04:50:33;100297.53;;;15.52;100.00
19672;BME280;9983;51.114;13.788;2022-10-18T04:55:33;100304.88;;;15.29;100.00
19672;BME280;9983;51.114;13.788;2022-10-18T05:00:34;100297.81;;;14.90;100.00
19672;BME280;9983;51.114;13.788;2022-10-18T05:05:34;100306.66;;;14.84;100.00
19672;BME280;9983;51.114;13.788;2022-10-18T05:10:34;100298.94;;;14.81;100.00
19672;BME280;9983;51.114;13.788;2022-10-18T05:15:35;100296.94;;;15.42;100.00
19672;BME280;9983;51.114;13.788;2022-10-18T05:20:35;100291.78;;;15.55;100.00
19672;BME280;9983;51.114;13.788;2022-10-18T05:25:39;100295.31;;;15.70;100.00
19672;BME280;9983;51.114;13.788;2022-10-18T05:30:40;100289.91;;;15.70;100.00
19672;BME280;9983;51.114;13.788;2022-10-18T05:35:40;100291.59;;;15.71;100.00
19672;BME280;9983;51.114;13.788;2022-10-18T05:40:41;100300.34;;;15.73;100.00
19672;BME280;9983;51.114;13.788;2022-10-18T05:45:46;100297.91;;;15.78;100.00
19672;BME280;9983;51.114;13.788;2022-10-18T05:50:47;100284.06;;;16.03;100.00
19672;BME280;9983;51.114;13.788;2022-10-18T05:55:47;100279.41;;;15.97;100.00
19672;BME280;9983;51.114;13.788;2022-10-18T06:00:47;100270.66;;;15.94;100.00
19672;BME280;9983;51.114;13.788;2022-10-18T06:05:47;100244.22;;;16.11;100.00
19672;BME280;9983;51.114;13.788;2022-10-18T06:10:48;100227.25;;;16.24;100.00
19672;BME280;9983;51.114;13.788;2022-10-18T06:15:48;100228.69;;;16.20;100.00
19672;BME280;9983;51.114;13.788;2022-10-18T06:20:48;100250.53;;;16.18;100.00
19672;BME280;9983;51.114;13.788;2022-10-18T06:25:49;100251.94;;;16.36;100.00
19672;BME280;9983;51.114;13.788;2022-10-18T06:30:49;100237.44;;;16.43;100.00
19672;BME280;9983;51.114;13.788;2022-10-18T06:35:56;100243.13;;;16.48;100.00
19672;BME280;9983;51.114;13.788;2022-10-18T06:40:57;100222.75;;;16.74;100.00
19672;BME280;9983;51.114;13.788;2022-10-18T06:45:59;100252.78;;;16.36;100.00
19672;BME280;9983;51.114;13.788;2022-10-18T06:51:03;100252.13;;;16.55;100.00
19672;BME280;9983;51.114;13.788;2022-10-18T06:56:09;100265.28;;;16.80;100.00
19672;BME280;9983;51.114;13.788;2022-10-18T07:01:12;100268.25;;;16.42;100.00
19672;BME280;9983;51.114;13.788;2022-10-18T07:06:14;100268.25;;;16.85;100.00
19672;BME280;9983;51.114;13.788;2022-10-18T07:11:18;100261.31;;;17.03;100.00
19672;BME280;9983;51.114;13.788;2022-10-18T07:16:19;100251.88;;;17.27;100.00
19672;BME280;9983;51.114;13.788;2022-10-18T07:21:21;100258.78;;;17.02;100.00
19672;BME280;9983;51.114;13.788;2022-10-18T07:26:25;100270.69;;;17.35;100.00
19672;BME280;9983;51.114;13.788;2022-10-18T07:31:26;100276.41;;;17.54;100.00
19672;BME280;9983;51.114;13.788;2022-10-18T07:36:28;100278.81;;;17.70;100.00
19672;BME280;9983;51.114;13.788;2022-10-18T07:41:28;100262.56;;;17.76;100.00
19672;BME280;9983;51.114;13.788;2022-10-18T07:46:31;100264.31;;;17.91;100.00
19672;BME280;9983;51.114;13.788;2022-10-18T07:51:31;100264.31;;;17.91;100.00
19672;BME280;9983;51.114;13.788;2022-10-18T07:56:32;100258.09;;;18.03;100.00
19672;BME280;9983;51.114;13.788;2022-10-18T08:01:33;100259.63;;;17.65;100.00
19672;BME280;9983;51.114;13.788;2022-10-18T08:06:33;100255.16;;;17.98;100.00
19672;BME280;9983;51.114;13.788;2022-10-18T08:11:33;100246.41;;;18.09;100.00
19672;BME280;9983;51.114;13.788;2022-10-18T08:16:33;100252.69;;;18.16;100.00
19672;BME280;9983;51.114;13.788;2022-10-18T08:21:34;100256.03;;;18.05;100.00
19672;BME280;9983;51.114;13.788;2022-10-18T08:26:34;100242.91;;;18.15;100.00
19672;BME280;9983;51.114;13.788;2022-10-18T08:31:34;100217.22;;;18.18;100.00
19672;BME280;9983;51.114;13.788;2022-10-18T08:36:36;100210.34;;;18.35;100.00
19672;BME280;9983;51.114;13.788;2022-10-18T08:41:47;100206.38;;;18.51;100.00
19672;BME280;9983;51.114;13.788;2022-10-18T08:46:59;100196.38;;;18.58;100.00
19672;BME280;9983;51.114;13.788;2022-10-18T08:52:03;100176.75;;;18.56;100.00
19672;BME280;9983;51.114;13.788;2022-10-18T08:57:13;100183.84;;;18.70;100.00
19672;BME280;9983;51.114;13.788;2022-10-18T09:02:24;100184.25;;;18.80;100.00
19672;BME280;9983;51.114;13.788;2022-10-18T09:23:46;100177.88;;;19.26;100.00
19672;BME280;9983;51.114;13.788;2022-10-18T09:34:29;100149.41;;;19.35;100.00
19672;BME280;9983;51.114;13.788;2022-10-18T09:39:36;100146.88;;;19.40;100.00
19672;BME280;9983;51.114;13.788;2022-10-18T09:44:39;100144.31;;;19.58;100.00
19672;BME280;9983;51.114;13.788;2022-10-18T09:49:46;100142.97;;;19.74;100.00
19672;BME280;9983;51.114;13.788;2022-10-18T09:54:52;100121.69;;;19.96;100.00
19672;BME280;9983;51.114;13.788;2022-10-18T09:59:55;100124.41;;;19.96;98.37
19672;BME280;9983;51.114;13.788;2022-10-18T10:04:56;100112.63;;;20.02;98.19
19672;BME280;9983;51.114;13.788;2022-10-18T10:10:03;100100.44;;;20.11;98.11
19672;BME280;9983;51.114;13.788;2022-10-18T10:20:22;100097.66;;;20.42;95.25
19672;BME280;9983;51.114;13.788;2022-10-18T10:25:32;100102.88;;;20.19;95.35
19672;BME280;9983;51.114;13.788;2022-10-18T10:30:35;100166.31;;;19.57;100.00
19672;BME280;9983;51.114;13.788;2022-10-18T10:35:38;100166.00;;;19.14;100.00
19672;BME280;9983;51.114;13.788;2022-10-18T10:40:46;100174.13;;;19.27;100.00
19672;BME280;9983;51.114;13.788;2022-10-18T10:51:09;100217.66;;;18.28;100.00
19672;BME280;9983;51.114;13.788;2022-10-18T10:56:16;100255.19;;;18.11;100.00
19672;BME280;9983;51.114;13.788;2022-10-18T11:01:21;100247.06;;;18.11;100.00
19672;BME280;9983;51.114;13.788;2022-10-18T11:06:45;100220.28;;;17.95;100.00
19672;BME280;9983;51.114;13.788;2022-10-18T11:11:57;100201.75;;;18.05;100.00
19672;BME280;9983;51.114;13.788;2022-10-18T11:17:19;100186.13;;;18.20;100.00
19672;BME280;9983;51.114;13.788;2022-10-18T11:22:23;100201.75;;;18.18;100.00
19672;BME280;9983;51.114;13.788;2022-10-18T11:27:33;100202.19;;;18.35;100.00
19672;BME280;9983;51.114;13.788;2022-10-18T11:32:49;100211.41;;;18.41;100.00
19672;BME280;9983;51.114;13.788;2022-10-18T11:38:24;100236.03;;;18.33;100.00
19672;BME280;9983;51.114;13.788;2022-10-18T11:43:39;100213.91;;;18.36;100.00
19672;BME280;9983;51.114;13.788;2022-10-18T11:49:16;100228.44;;;18.08;100.00
19672;BME280;9983;51.114;13.788;2022-10-18T11:54:35;100236.84;;;18.27;100.00
19672;BME280;9983;51.114;13.788;2022-10-18T12:04:59;100245.22;;;18.45;100.00
19672;BME280;9983;51.114;13.788;2022-10-18T12:10:02;100250.66;;;18.32;100.00
19672;BME280;9983;51.114;13.788;2022-10-18T12:15:15;100254.75;;;18.08;100.00
19672;BME280;9983;51.114;13.788;2022-10-18T12:20:35;100250.16;;;18.08;100.00
19672;BME280;9983;51.114;13.788;2022-10-18T12:25:40;100251.47;;;18.26;100.00
19672;BME280;9983;51.114;13.788;2022-10-18T12:30:53;100262.34;;;18.39;100.00
19672;BME280;9983;51.114;13.788;2022-10-18T12:41:26;100271.09;;;18.21;100.00
19672;BME280;9983;51.114;13.788;2022-10-18T12:51:52;100262.75;;;18.36;100.00
19672;BME280;9983;51.114;13.788;2022-10-18T12:56:52;100263.34;;;18.25;100.00
19672;BME280;9983;51.114;13.788;2022-10-18T13:27:43;100284.06;;;18.32;100.00
19672;BME280;9983;51.114;13.788;2022-10-18T13:32:59;100282.31;;;17.98;100.00
19672;BME280;9983;51.114;13.788;2022-10-18T13:43:59;100290.75;;;18.43;100.00
19672;BME280;9983;51.114;13.788;2022-10-18T13:49:33;100295.34;;;18.36;100.00
19672;BME280;9983;51.114;13.788;2022-10-18T14:05:41;100268.66;;;18.59;100.00
19672;BME280;9983;51.114;13.788;2022-10-18T14:11:10;100266.91;;;18.18;100.00
19672;BME280;9983;51.114;13.788;2022-10-18T14:16:30;100258.63;;;18.60;100.00
19672;BME280;9983;51.114;13.788;2022-10-18T14:21:37;100259.06;;;18.76;100.00
19672;BME280;9983;51.114;13.788;2022-10-18T14:26:39;100267.84;;;18.78;100.00
19672;BME280;9983;51.114;13.788;2022-10-18T14:31:39;100275.78;;;18.60;100.00
19672;BME280;9983;51.114;13.788;2022-10-18T14:36:41;100291.66;;;18.76;100.00
19672;BME280;9983;51.114;13.788;2022-10-18T14:41:50;100286.22;;;18.76;100.00
19672;BME280;9983;51.114;13.788;2022-10-18T14:47:16;100298.28;;;18.41;100.00
19672;BME280;9983;51.114;13.788;2022-10-18T14:52:23;100301.84;;;18.48;100.00
19672;BME280;9983;51.114;13.788;2022-10-18T14:57:30;100310.59;;;18.37;100.00
19672;BME280;9983;51.114;13.788;2022-10-18T15:02:32;100296.09;;;18.10;100.00
19672;BME280;9983;51.114;13.788;2022-10-18T15:07:34;100297.78;;;18.17;100.00
19672;BME280;9983;51.114;13.788;2022-10-18T15:12:37;100294.69;;;18.34;100.00
19672;BME280;9983;51.114;13.788;2022-10-18T15:17:38;100292.22;;;18.45;100.00
19672;BME280;9983;51.114;13.788;2022-10-18T15:22:39;100304.13;;;18.51;100.00
19672;BME280;9983;51.114;13.788;2022-10-18T15:27:42;100295.84;;;18.72;100.00
19672;BME280;9983;51.114;13.788;2022-10-18T15:33:00;100301.41;;;18.51;100.00
19672;BME280;9983;51.114;13.788;2022-10-18T15:38:25;100295.78;;;18.33;100.00
19672;BME280;9983;51.114;13.788;2022-10-18T15:48:29;100310.28;;;18.05;100.00
19672;BME280;9983;51.114;13.788;2022-10-18T16:03:39;100332.84;;;18.12;100.00
19672;BME280;9983;51.114;13.788;2022-10-18T16:08:46;100326.16;;;18.08;100.00
19672;BME280;9983;51.114;13.788;2022-10-18T16:13:46;100334.94;;;18.10;100.00
19672;BME280;9983;51.114;13.788;2022-10-18T16:18:47;100333.38;;;17.88;100.00
19672;BME280;9983;51.114;13.788;2022-10-18T16:23:48;100341.09;;;17.91;100.00
19672;BME280;9983;51.114;13.788;2022-10-18T16:28:49;100341.44;;;17.75;100.00
19672;BME280;9983;51.114;13.788;2022-10-18T16:33:50;100341.72;;;17.87;100.00
19672;BME280;9983;51.114;13.788;2022-10-18T16:38:51;100347.25;;;17.65;100.00
19672;BME280;9983;51.114;13.788;2022-10-18T16:43:51;100350.81;;;17.44;100.00
19672;BME280;9983;51.114;13.788;2022-10-18T16:48:52;100349.22;;;17.01;100.00
19672;BME280;9983;51.114;13.788;2022-10-18T16:53:53;100348.97;;;17.52;100.00
19672;BME280;9983;51.114;13.788;2022-10-18T16:58:53;100345.00;;;17.48;100.00
19672;BME280;9983;51.114;13.788;2022-10-18T17:03:53;100353.50;;;17.17;100.00
19672;BME280;9983;51.114;13.788;2022-10-18T17:08:55;100351.94;;;16.80;100.00
19672;BME280;9983;51.114;13.788;2022-10-18T17:13:55;100349.97;;;17.16;100.00
19672;BME280;9983;51.114;13.788;2022-10-18T17:18:59;100355.53;;;16.65;100.00
19672;BME280;9983;51.114;13.788;2022-10-18T17:24:00;100359.50;;;16.63;100.00
19672;BME280;9983;51.114;13.788;2022-10-18T17:29:04;100372.84;;;16.64;100.00
19672;BME280;9983;51.114;13.788;2022-10-18T17:34:05;100370.38;;;17.12;100.00
19672;BME280;9983;51.114;13.788;2022-10-18T17:39:05;100368.97;;;16.74;100.00
19672;BME280;9983;51.114;13.788;2022-10-18T17:44:06;100360.78;;;16.52;100.00
19672;BME280;9983;51.114;13.788;2022-10-18T17:49:06;100370.72;;;16.81;100.00
19672;BME280;9983;51.114;13.788;2022-10-18T17:54:07;100374.13;;;16.90;100.00
19672;BME280;9983;51.114;13.788;2022-10-18T17:59:07;100373.34;;;16.96;100.00
19672;BME280;9983;51.114;13.788;2022-10-18T18:04:08;100370.31;;;16.84;100.00
19672;BME280;9983;51.114;13.788;2022-10-18T18:09:12;100368.47;;;16.63;100.00
19672;BME280;9983;51.114;13.788;2022-10-18T18:14:13;100371.25;;;16.55;100.00
19672;BME280;9983;51.114;13.788;2022-10-18T18:19:15;100372.19;;;16.62;100.00
19672;BME280;9983;51.114;13.788;2022-10-18T18:24:18;100372.19;;;16.84;100.00
19672;BME280;9983;51.114;13.788;2022-10-18T18:29:25;100370.50;;;16.61;100.00
19672;BME280;9983;51.114;13.788;2022-10-18T18:34:25;100372.84;;;16.86;100.00
19672;BME280;9983;51.114;13.788;2022-10-18T18:39:26;100380.63;;;16.38;100.00
19672;BME280;9983;51.114;13.788;2022-10-18T18:44:29;100374.69;;;16.28;100.00
19672;BME280;9983;51.114;13.788;2022-10-18T18:49:29;100378.63;;;16.83;100.00
19672;BME280;9983;51.114;13.788;2022-10-18T18:54:30;100376.56;;;16.85;100.00
19672;BME280;9983;51.114;13.788;2022-10-18T18:59:30;100370.63;;;16.75;100.00
19672;BME280;9983;51.114;13.788;2022-10-18T19:04:31;100372.38;;;16.82;100.00
19672;BME280;9983;51.114;13.788;2022-10-18T19:09:31;100364.25;;;16.61;100.00
19672;BME280;9983;51.114;13.788;2022-10-18T19:14:32;100375.75;;;16.48;100.00
19672;BME280;9983;51.114;13.788;2022-10-18T19:19:32;100381.47;;;16.75;100.00
19672;BME280;9983;51.114;13.788;2022-10-18T19:24:33;100379.38;;;16.55;100.00
19672;BME280;9983;51.114;13.788;2022-10-18T19:29:35;100381.78;;;16.29;100.00
19672;BME280;9983;51.114;13.788;2022-10-18T19:34:35;100380.31;;;16.12;100.00
19672;BME280;9983;51.114;13.788;2022-10-18T19:39:36;100392.75;;;16.42;100.00
19672;BME280;9983;51.114;13.788;2022-10-18T19:44:36;100389.91;;;16.50;100.00
19672;BME280;9983;51.114;13.788;2022-10-18T19:49:37;100393.97;;;16.40;100.00
19672;BME280;9983;51.114;13.788;2022-10-18T19:54:38;100395.78;;;16.18;100.00
19672;BME280;9983;51.114;13.788;2022-10-18T19:59:38;100384.63;;;16.42;100.00
19672;BME280;9983;51.114;13.788;2022-10-18T20:04:39;100396.69;;;16.25;100.00
19672;BME280;9983;51.114;13.788;2022-10-18T20:09:40;100396.63;;;16.04;100.00
19672;BME280;9983;51.114;13.788;2022-10-18T20:14:40;100396.16;;;16.15;100.00
19672;BME280;9983;51.114;13.788;2022-10-18T20:19:40;100393.91;;;15.74;100.00
19672;BME280;9983;51.114;13.788;2022-10-18T20:24:40;100399.25;;;15.97;100.00
19672;BME280;9983;51.114;13.788;2022-10-18T20:29:41;100390.66;;;15.93;100.00
19672;BME280;9983;51.114;13.788;2022-10-18T20:34:41;100390.19;;;15.75;100.00
19672;BME280;9983;51.114;13.788;2022-10-18T20:39:41;100400.91;;;15.69;100.00
19672;BME280;9983;51.114;13.788;2022-10-18T20:44:41;100401.22;;;15.88;100.00
19672;BME280;9983;51.114;13.788;2022-10-18T20:49:42;100402.69;;;15.76;100.00
19672;BME280;9983;51.114;13.788;2022-10-18T20:54:42;100404.56;;;15.90;100.00
19672;BME280;9983;51.114;13.788;2022-10-18T20:59:43;100398.69;;;15.35;100.00
19672;BME280;9983;51.114;13.788;2022-10-18T21:04:43;100397.09;;;15.63;100.00
19672;BME280;9983;51.114;13.788;2022-10-18T21:09:43;100404.47;;;15.69;100.00
19672;BME280;9983;51.114;13.788;2022-10-18T21:14:44;100402.50;;;15.63;100.00
19672;BME280;9983;51.114;13.788;2022-10-18T21:19:44;100395.34;;;15.70;100.00
19672;BME280;9983;51.114;13.788;2022-10-18T21:24:44;100389.56;;;15.36;100.00
19672;BME280;9983;51.114;13.788;2022-10-18T21:29:47;100393.88;;;15.45;100.00
19672;BME280;9983;51.114;13.788;2022-10-18T21:34:47;100401.69;;;15.40;100.00
19672;BME280;9983;51.114;13.788;2022-10-18T21:39:48;100400.91;;;15.54;100.00
19672;BME280;9983;51.114;13.788;2022-10-18T21:44:48;100392.19;;;15.44;100.00
19672;BME280;9983;51.114;13.788;2022-10-18T21:49:48;100407.91;;;15.63;100.00
19672;BME280;9983;51.114;13.788;2022-10-18T21:54:48;100409.59;;;15.64;100.00
19672;BME280;9983;51.114;13.788;2022-10-18T21:59:49;100408.22;;;15.31;100.00
19672;BME280;9983;51.114;13.788;2022-10-18T22:04:49;100419.50;;;15.11;100.00
19672;BME280;9983;51.114;13.788;2022-10-18T22:09:49;100403.75;;;15.38;100.00
19672;BME280;9983;51.114;13.788;2022-10-18T22:14:49;100397.94;;;15.41;100.00
19672;BME280;9983;51.114;13.788;2022-10-18T22:19:50;100388.47;;;15.45;100.00
19672;BME280;9983;51.114;13.788;2022-10-18T22:24:50;100394.50;;;15.55;100.00
19672;BME280;9983;51.114;13.788;2022-10-18T22:29:50;100401.81;;;15.46;100.00
19672;BME280;9983;51.114;13.788;2022-10-18T22:34:52;100399.16;;;15.61;100.00
19672;BME280;9983;51.114;13.788;2022-10-18T22:39:52;100389.09;;;15.55;100.00
19672;BME280;9983;51.114;13.788;2022-10-18T22:44:53;100393.13;;;15.51;100.00
19672;BME280;9983;51.114;13.788;2022-10-18T22:49:53;100383.59;;;15.63;100.00
19672;BME280;9983;51.114;13.788;2022-10-18T22:54:53;100370.78;;;15.57;100.00
19672;BME280;9983;51.114;13.788;2022-10-18T22:59:53;100374.53;;;15.56;100.00
19672;BME280;9983;51.114;13.788;2022-10-18T23:04:54;100386.19;;;15.57;100.00
19672;BME280;9983;51.114;13.788;2022-10-18T23:09:54;100378.59;;;15.52;100.00
19672;BME280;9983;51.114;13.788;2022-10-18T23:14:54;100376.34;;;15.41;100.00
19672;BME280;9983;51.114;13.788;2022-10-18T23:19:54;100386.44;;;15.47;100.00
19672;BME280;9983;51.114;13.788;2022-10-18T23:24:55;100393.66;;;15.32;100.00
19672;BME280;9983;51.114;13.788;2022-10-18T23:29:55;100398.78;;;15.41;100.00
19672;BME280;9983;51.114;13.788;2022-10-18T23:34:55;100392.00;;;15.31;100.00
19672;BME280;9983;51.114;13.788;2022-10-18T23:39:55;100403.50;;;15.47;100.00
19672;BME280;9983;51.114;13.788;2022-10-18T23:44:56;100400.56;;;15.49;100.00
19672;BME280;9983;51.114;13.788;2022-10-18T23:49:56;100388.28;;;15.46;100.00
19672;BME280;9983;51.114;13.788;2022-10-18T23:54:57;100390.66;;;15.27;100.00
19672;BME280;9983;51.114;13.788;2022-10-18T23:59:58;100391.72;;;15.40;100.00
